createdAt,value
2022-12-15T00:00:04.782Z,108.28
2022-12-15T00:01:22.082Z,112.95
2022-12-15T00:02:39.525Z,108.65
2022-12-15T00:03:57.130Z,103.93
2022-12-15T00:05:18.111Z,103.63
2022-12-15T00:06:35.364Z,104.80
2022-12-15T00:07:53.861Z,103.80
2022-12-15T00:09:14.480Z,102.00
2022-12-15T00:10:32.866Z,106.88
2022-12-15T00:11:50.376Z,104.55
2022-12-15T00:13:07.539Z,107.30
2022-12-15T00:14:30.061Z,111.68
2022-12-15T00:15:48.139Z,113.40
2022-12-15T00:17:06.919Z,117.72
2022-12-15T00:18:24.730Z,110.57
2022-12-15T00:19:42.188Z,105.05
2022-12-15T00:20:59.791Z,105.65
2022-12-15T00:22:16.966Z,103.03
2022-12-15T00:23:34.547Z,107.97
2022-12-15T00:24:51.821Z,103.68
2022-12-15T00:26:09.282Z,106.85
2022-12-15T00:27:26.503Z,102.45
2022-12-15T00:28:43.680Z,104.20
2022-12-15T00:30:04.319Z,113.45
2022-12-15T00:31:21.708Z,105.13
2022-12-15T00:32:38.944Z,107.07
2022-12-15T00:33:56.130Z,110.68
2022-12-15T00:35:13.708Z,109.63
2022-12-15T00:36:30.893Z,104.40
2022-12-15T00:37:49.258Z,105.55
2022-12-15T00:38:56.987Z,102.95
2022-12-15T00:40:04.520Z,100.32
2022-12-15T00:41:10.317Z,102.05
2022-12-15T00:42:12.456Z,98.72
2022-12-15T00:43:17.206Z,102.57
2022-12-15T00:44:20.878Z,96.20
2022-12-15T00:45:51.953Z,94.78
2022-12-15T00:46:57.302Z,95.60
2022-12-15T00:47:59.751Z,88.50
2022-12-15T00:49:25.229Z,85.35
2022-12-15T00:50:42.674Z,91.25
2022-12-15T00:52:00.064Z,92.82
2022-12-15T00:53:19.045Z,90.35
2022-12-15T00:54:37.096Z,88.60
2022-12-15T00:55:54.324Z,89.97
2022-12-15T00:57:11.655Z,89.00
2022-12-15T00:58:29.730Z,94.00
2022-12-15T00:59:47.493Z,85.45
2022-12-15T01:01:07.939Z,91.05
2022-12-15T01:02:25.280Z,83.32
2022-12-15T01:03:43.895Z,86.22
2022-12-15T01:05:01.265Z,84.70
2022-12-15T01:06:21.720Z,88.57
2022-12-15T01:07:39.031Z,77.85
2022-12-15T01:08:56.621Z,82.78
2022-12-15T01:10:14.332Z,88.78
2022-12-15T01:11:31.817Z,84.10
2022-12-15T01:12:49.366Z,75.22
2022-12-15T01:14:06.528Z,80.47
2022-12-15T01:15:24.639Z,81.65
2022-12-15T01:16:44.536Z,81.82
2022-12-15T01:18:01.903Z,83.88
2022-12-15T01:19:20.540Z,79.82
2022-12-15T01:20:26.418Z,77.80
2022-12-15T01:21:28.648Z,80.82
2022-12-15T01:22:35.034Z,76.10
2022-12-15T01:23:40.968Z,78.50
2022-12-15T01:24:49.201Z,92.15
2022-12-15T01:25:52.143Z,79.65
2022-12-15T01:26:58.046Z,78.55
2022-12-15T01:28:03.136Z,89.80
2022-12-15T01:29:10.349Z,79.00
2022-12-15T01:30:15.206Z,76.88
2022-12-15T01:31:21.671Z,73.95
2022-12-15T01:32:27.812Z,75.97
2022-12-15T01:33:33.104Z,77.60
2022-12-15T01:34:35.597Z,80.18
2022-12-15T01:35:40.517Z,72.35
2022-12-15T01:36:42.920Z,80.38
2022-12-15T01:37:49.839Z,77.40
2022-12-15T01:38:54.551Z,74.75
2022-12-15T01:40:11.869Z,78.38
2022-12-15T01:41:18.435Z,75.00
2022-12-15T01:42:20.990Z,74.22
2022-12-15T01:43:29.526Z,77.03
2022-12-15T01:44:31.975Z,70.32
2022-12-15T01:45:59.406Z,74.30
2022-12-15T01:47:02.636Z,75.80
2022-12-15T01:48:16.536Z,73.68
2022-12-15T01:49:26.636Z,74.32
2022-12-15T01:50:30.301Z,70.32
2022-12-15T01:51:41.538Z,79.00
2022-12-15T01:52:44.336Z,69.70
2022-12-15T01:53:57.438Z,74.35
2022-12-15T01:54:59.669Z,71.90
2022-12-15T01:56:07.013Z,70.82
2022-12-15T01:57:14.185Z,76.82
2022-12-15T01:58:21.804Z,76.60
2022-12-15T01:59:29.329Z,75.07
2022-12-15T02:00:34.501Z,78.22
2022-12-15T02:01:50.456Z,78.57
2022-12-15T02:02:53.591Z,72.85
2022-12-15T02:04:01.102Z,78.93
2022-12-15T02:05:05.113Z,78.43
2022-12-15T02:06:11.838Z,82.13
2022-12-15T02:07:17.072Z,81.10
2022-12-15T02:08:22.484Z,79.97
2022-12-15T02:09:30.488Z,77.10
2022-12-15T02:10:47.057Z,83.15
2022-12-15T02:12:03.831Z,87.70
2022-12-15T02:13:16.344Z,82.15
2022-12-15T02:14:31.756Z,87.97
2022-12-15T02:15:43.884Z,83.70
2022-12-15T02:17:04.428Z,86.60
2022-12-15T02:18:14.218Z,83.10
2022-12-15T02:19:51.614Z,91.38
2022-12-15T02:21:01.008Z,87.05
2022-12-15T02:22:19.831Z,96.05
2022-12-15T02:24:07.190Z,93.20
2022-12-15T02:25:29.200Z,99.00
2022-12-15T02:28:00.239Z,96.45
2022-12-15T02:29:21.428Z,108.55
2022-12-15T02:30:44.921Z,100.03
2022-12-15T02:31:54.663Z,101.65
2022-12-15T02:33:18.774Z,107.45
2022-12-15T02:34:27.384Z,111.57
2022-12-15T02:35:39.399Z,110.28
2022-12-15T02:36:44.908Z,110.68
2022-12-15T02:37:50.777Z,117.40
2022-12-15T02:38:53.065Z,111.43
2022-12-15T02:39:57.861Z,119.90
2022-12-15T02:41:01.128Z,107.97
2022-12-15T02:42:08.255Z,111.82
2022-12-15T02:43:11.475Z,109.03
2022-12-15T02:44:21.327Z,112.53
2022-12-15T02:45:33.020Z,112.78
2022-12-15T02:46:48.395Z,110.93
2022-12-15T02:48:03.228Z,109.80
2022-12-15T02:49:18.678Z,114.18
2022-12-15T02:50:39.628Z,121.18
2022-12-15T02:51:56.044Z,122.97
2022-12-15T02:53:09.824Z,109.97
2022-12-15T02:54:36.911Z,110.03
2022-12-15T02:55:47.399Z,119.47
2022-12-15T02:57:06.662Z,116.70
2022-12-15T02:58:16.226Z,116.65
2022-12-15T02:59:28.559Z,117.60
2022-12-15T03:00:42.426Z,109.35
2022-12-15T03:01:53.345Z,109.05
2022-12-15T03:03:00.645Z,119.03
2022-12-15T03:04:06.801Z,114.78
2022-12-15T03:05:13.605Z,121.63
2022-12-15T03:06:17.528Z,114.72
2022-12-15T03:07:22.409Z,113.75
2022-12-15T03:08:25.945Z,116.60
2022-12-15T03:09:31.234Z,114.20
2022-12-15T03:10:33.878Z,119.68
2022-12-15T03:11:40.856Z,124.03
2022-12-15T03:12:43.545Z,125.20
2022-12-15T03:13:49.819Z,118.03
2022-12-15T03:14:52.319Z,126.38
2022-12-15T03:15:59.674Z,123.72
2022-12-15T03:17:04.944Z,123.72
2022-12-15T03:18:13.086Z,134.88
2022-12-15T03:19:17.765Z,134.05
2022-12-15T03:20:24.449Z,133.15
2022-12-15T03:21:28.035Z,123.05
2022-12-15T03:22:33.045Z,123.47
2022-12-15T03:23:39.761Z,129.85
2022-12-15T03:24:41.867Z,123.22
2022-12-15T03:25:49.751Z,122.80
2022-12-15T03:26:53.523Z,124.90
2022-12-15T03:27:58.492Z,125.38
2022-12-15T03:29:00.822Z,122.95
2022-12-15T03:30:09.871Z,120.07
2022-12-15T03:31:15.484Z,113.15
2022-12-15T03:32:20.412Z,119.30
2022-12-15T03:33:22.876Z,124.35
2022-12-15T03:34:28.105Z,119.25
2022-12-15T03:35:30.518Z,109.63
2022-12-15T03:36:35.691Z,118.28
2022-12-15T03:37:37.949Z,117.63
2022-12-15T03:38:43.237Z,118.22
2022-12-15T03:39:48.148Z,121.10
2022-12-15T03:40:55.419Z,114.93
2022-12-15T03:41:58.035Z,121.70
2022-12-15T03:43:09.229Z,115.68
2022-12-15T03:44:13.434Z,116.75
2022-12-15T03:45:18.773Z,118.40
2022-12-15T03:46:25.191Z,111.35
2022-12-15T03:47:30.483Z,121.70
2022-12-15T03:48:35.469Z,132.60
2022-12-15T03:49:37.822Z,119.90
2022-12-15T03:50:44.544Z,115.32
2022-12-15T03:51:46.869Z,119.20
2022-12-15T03:52:54.431Z,117.43
2022-12-15T03:53:56.607Z,118.65
2022-12-15T03:55:01.472Z,121.30
2022-12-15T03:56:04.091Z,106.72
2022-12-15T03:57:10.083Z,108.72
2022-12-15T03:58:12.448Z,110.30
2022-12-15T03:59:17.656Z,99.18
2022-12-15T04:00:23.050Z,99.40
2022-12-15T04:01:36.627Z,99.60
2022-12-15T04:02:41.502Z,96.55
2022-12-15T04:03:47.254Z,98.22
2022-12-15T04:04:50.518Z,92.95
2022-12-15T04:05:58.412Z,101.32
2022-12-15T04:07:00.629Z,99.10
2022-12-15T04:08:07.561Z,101.22
2022-12-15T04:09:09.992Z,98.53
2022-12-15T04:10:16.469Z,93.18
2022-12-15T04:11:19.399Z,102.18
2022-12-15T04:12:26.080Z,90.65
2022-12-15T04:13:29.953Z,93.50
2022-12-15T04:14:35.749Z,83.55
2022-12-15T04:15:40.522Z,96.03
2022-12-15T04:16:48.467Z,91.05
2022-12-15T04:17:52.574Z,97.13
2022-12-15T04:19:10.046Z,91.60
2022-12-15T04:20:15.616Z,92.80
2022-12-15T04:21:18.127Z,88.93
2022-12-15T04:22:20.380Z,91.68
2022-12-15T04:23:26.511Z,92.57
2022-12-15T04:24:43.607Z,89.95
2022-12-15T04:26:02.145Z,94.07
2022-12-15T04:27:19.420Z,94.82
2022-12-15T04:28:37.318Z,87.60
2022-12-15T04:29:55.305Z,92.40
2022-12-15T04:31:14.742Z,96.10
2022-12-15T04:32:35.108Z,88.45
2022-12-15T04:33:57.612Z,97.22
2022-12-15T04:35:15.188Z,89.57
2022-12-15T04:36:33.089Z,90.38
2022-12-15T04:37:50.260Z,102.53
2022-12-15T04:39:07.718Z,98.20
2022-12-15T04:40:26.407Z,87.75
2022-12-15T04:41:47.393Z,93.95
2022-12-15T04:43:06.659Z,96.40
2022-12-15T04:44:27.610Z,90.70
2022-12-15T04:45:45.208Z,95.47
2022-12-15T04:47:02.642Z,90.85
2022-12-15T04:48:23.466Z,100.85
2022-12-15T04:49:40.781Z,98.10
2022-12-15T04:50:58.157Z,101.55
2022-12-15T04:52:15.336Z,101.05
2022-12-15T04:53:34.466Z,101.78
2022-12-15T04:54:52.087Z,104.95
2022-12-15T04:56:18.275Z,98.75
2022-12-15T04:57:36.378Z,100.05
2022-12-15T04:58:53.587Z,94.85
2022-12-15T05:00:10.746Z,100.50
2022-12-15T05:01:28.218Z,90.70
2022-12-15T05:02:45.539Z,96.75
2022-12-15T05:04:25.899Z,105.43
2022-12-15T05:05:45.392Z,102.53
2022-12-15T05:07:02.708Z,97.50
2022-12-15T05:08:20.378Z,106.13
2022-12-15T05:09:37.522Z,99.38
2022-12-15T05:10:54.831Z,100.43
2022-12-15T05:12:12.627Z,95.18
2022-12-15T05:13:32.856Z,98.30
2022-12-15T05:14:50.445Z,94.05
2022-12-15T05:16:09.301Z,96.38
2022-12-15T05:17:26.548Z,95.47
2022-12-15T05:18:43.736Z,96.93
2022-12-15T05:20:04.022Z,95.93
2022-12-15T05:21:22.560Z,91.72
2022-12-15T05:22:39.991Z,92.45
2022-12-15T05:23:57.332Z,105.07
2022-12-15T05:25:14.509Z,96.85
2022-12-15T05:26:31.663Z,102.20
2022-12-15T05:27:49.188Z,97.32
2022-12-15T05:29:08.880Z,94.68
2022-12-15T05:30:26.871Z,113.38
2022-12-15T05:31:43.998Z,106.75
2022-12-15T05:32:51.750Z,93.63
2022-12-15T05:33:57.185Z,101.13
2022-12-15T05:35:15.900Z,90.75
2022-12-15T05:36:18.462Z,92.80
2022-12-15T05:37:24.515Z,114.45
2022-12-15T05:38:28.498Z,101.28
2022-12-15T05:39:33.651Z,103.07
2022-12-15T05:40:36.317Z,102.85
2022-12-15T05:41:42.058Z,98.32
2022-12-15T05:42:44.288Z,99.28
2022-12-15T05:43:57.058Z,95.18
2022-12-15T05:45:01.881Z,98.15
2022-12-15T05:46:04.734Z,94.40
2022-12-15T05:47:12.481Z,105.35
2022-12-15T05:48:15.142Z,92.75
2022-12-15T05:49:24.269Z,92.38
2022-12-15T05:50:33.058Z,95.88
2022-12-15T05:51:43.623Z,94.30
2022-12-15T05:52:49.352Z,100.53
2022-12-15T05:53:54.708Z,89.45
2022-12-15T05:54:59.647Z,101.18
2022-12-15T05:56:03.186Z,101.32
2022-12-15T05:57:07.944Z,108.30
2022-12-15T05:58:10.163Z,112.93
2022-12-15T05:59:16.208Z,96.50
2022-12-15T06:00:19.103Z,92.68
2022-12-15T06:01:23.975Z,104.03
2022-12-15T06:02:26.404Z,102.18
2022-12-15T06:03:32.613Z,105.20
2022-12-15T06:04:40.052Z,99.47
2022-12-15T06:05:45.103Z,102.03
2022-12-15T06:06:52.051Z,101.90
2022-12-15T06:07:56.339Z,94.57
2022-12-15T06:09:01.392Z,88.68
2022-12-15T06:10:04.796Z,97.93
2022-12-15T06:11:11.363Z,96.32
2022-12-15T06:12:13.397Z,98.32
2022-12-15T06:13:18.167Z,99.40
2022-12-15T06:14:21.428Z,104.80
2022-12-15T06:15:26.149Z,100.00
2022-12-15T06:16:28.683Z,114.28
2022-12-15T06:17:33.729Z,101.45
2022-12-15T06:18:40.107Z,103.05
2022-12-15T06:19:46.176Z,88.78
2022-12-15T06:20:58.255Z,86.25
2022-12-15T06:22:02.982Z,90.90
2022-12-15T06:23:05.063Z,82.97
2022-12-15T06:24:12.048Z,92.47
2022-12-15T06:25:18.526Z,86.32
2022-12-15T06:26:23.115Z,87.10
2022-12-15T06:27:30.124Z,89.50
2022-12-15T06:28:32.290Z,85.53
2022-12-15T06:29:38.072Z,88.07
2022-12-15T06:30:40.313Z,90.68
2022-12-15T06:31:46.166Z,86.72
2022-12-15T06:32:49.913Z,86.90
2022-12-15T06:34:02.115Z,99.20
2022-12-15T06:35:10.115Z,90.00
2022-12-15T06:36:18.741Z,84.50
2022-12-15T06:37:25.458Z,86.72
2022-12-15T06:38:29.415Z,88.53
2022-12-15T06:39:34.328Z,91.95
2022-12-15T06:40:38.236Z,86.22
2022-12-15T06:41:43.297Z,84.28
2022-12-15T06:42:45.381Z,85.70
2022-12-15T06:43:53.569Z,83.72
2022-12-15T06:45:00.299Z,85.57
2022-12-15T06:46:03.594Z,87.80
2022-12-15T06:47:08.670Z,87.82
2022-12-15T06:48:10.775Z,89.63
2022-12-15T06:49:16.010Z,89.38
2022-12-15T06:50:18.068Z,114.78
2022-12-15T06:55:24.869Z,92.85
2022-12-15T06:56:33.997Z,86.63
2022-12-15T06:57:46.356Z,96.22
2022-12-15T06:58:51.434Z,88.47
2022-12-15T07:00:00.799Z,90.38
2022-12-15T07:01:15.509Z,86.82
2022-12-15T07:02:28.504Z,94.32
2022-12-15T07:03:32.450Z,88.85
2022-12-15T07:04:37.822Z,92.55
2022-12-15T07:05:48.958Z,95.65
2022-12-15T07:06:54.021Z,96.03
2022-12-15T07:07:56.623Z,93.15
2022-12-15T07:09:02.053Z,91.40
2022-12-15T07:10:05.063Z,99.47
2022-12-15T07:11:15.498Z,99.47
2022-12-15T07:12:20.805Z,99.60
2022-12-15T07:13:24.814Z,97.00
2022-12-15T07:14:31.847Z,88.13
2022-12-15T07:15:34.130Z,86.80
2022-12-15T07:16:39.599Z,91.50
2022-12-15T07:17:41.771Z,84.15
2022-12-15T07:18:46.690Z,89.53
2022-12-15T07:19:49.087Z,93.43
2022-12-15T07:20:54.328Z,93.53
2022-12-15T07:21:57.970Z,91.55
2022-12-15T07:23:07.923Z,91.70
2022-12-15T07:24:16.327Z,82.20
2022-12-15T07:25:19.057Z,86.57
2022-12-15T07:26:27.266Z,87.13
2022-12-15T07:27:29.817Z,83.95
2022-12-15T07:28:35.409Z,87.60
2022-12-15T07:29:40.840Z,87.43
2022-12-15T07:30:43.535Z,81.32
2022-12-15T07:31:49.611Z,89.35
2022-12-15T07:32:52.598Z,91.78
2022-12-15T07:33:57.506Z,89.90
2022-12-15T07:35:00.802Z,86.15
2022-12-15T07:36:08.404Z,85.10
2022-12-15T07:37:15.323Z,81.28
2022-12-15T07:38:19.572Z,95.72
2022-12-15T07:39:24.682Z,88.38
2022-12-15T07:40:27.300Z,92.95
2022-12-15T07:41:37.751Z,88.93
2022-12-15T07:42:40.025Z,90.30
2022-12-15T07:43:48.485Z,87.38
2022-12-15T07:44:53.502Z,90.65
2022-12-15T07:45:55.911Z,95.80
2022-12-15T07:47:02.235Z,92.90
2022-12-15T07:48:06.113Z,135.60
2022-12-15T07:49:13.817Z,89.70
2022-12-15T07:50:17.420Z,90.50
2022-12-15T07:51:23.746Z,91.43
2022-12-15T07:52:28.542Z,84.60
2022-12-15T07:53:34.802Z,89.43
2022-12-15T07:54:41.391Z,90.25
2022-12-15T07:56:06.339Z,89.63
2022-12-15T07:57:13.237Z,90.10
2022-12-15T07:58:20.895Z,88.30
2022-12-15T07:59:27.835Z,94.85
2022-12-15T08:00:30.377Z,93.93
2022-12-15T08:01:36.314Z,85.78
2022-12-15T08:02:43.849Z,89.15
2022-12-15T08:03:46.733Z,87.28
2022-12-15T08:04:58.663Z,83.80
2022-12-15T08:06:05.548Z,92.22
2022-12-15T08:07:11.737Z,87.00
2022-12-15T08:08:15.532Z,89.45
2022-12-15T08:09:21.121Z,85.15
2022-12-15T08:10:26.486Z,83.47
2022-12-15T08:11:34.714Z,83.00
2022-12-15T08:12:40.089Z,83.90
2022-12-15T08:14:04.076Z,97.88
2022-12-15T08:15:13.354Z,86.38
2022-12-15T08:16:15.964Z,82.53
2022-12-15T08:17:21.674Z,82.03
2022-12-15T08:18:24.434Z,78.90
2022-12-15T08:19:30.949Z,79.28
2022-12-15T08:20:35.759Z,85.43
2022-12-15T08:21:43.631Z,82.50
2022-12-15T08:22:45.912Z,81.55
2022-12-15T08:23:52.301Z,74.07
2022-12-15T08:24:58.199Z,85.03
2022-12-15T08:26:03.629Z,80.50
2022-12-15T08:27:11.133Z,93.15
2022-12-15T08:28:18.789Z,109.10
2022-12-15T08:30:46.254Z,87.82
2022-12-15T08:31:52.153Z,90.00
2022-12-15T08:32:57.125Z,89.18
2022-12-15T08:34:01.271Z,92.13
2022-12-15T08:35:19.924Z,84.70
2022-12-15T08:36:32.021Z,78.57
2022-12-15T08:37:37.057Z,87.28
2022-12-15T08:38:40.122Z,84.70
2022-12-15T08:39:45.900Z,91.97
2022-12-15T08:40:48.108Z,82.68
2022-12-15T08:41:56.147Z,91.47
2022-12-15T08:43:02.002Z,92.50
2022-12-15T08:44:10.546Z,98.05
2022-12-15T08:45:18.027Z,86.10
2022-12-15T08:46:24.122Z,85.00
2022-12-15T08:47:29.110Z,75.32
2022-12-15T08:48:31.692Z,72.03
2022-12-15T08:49:36.594Z,77.03
2022-12-15T08:50:38.765Z,70.80
2022-12-15T08:51:44.160Z,75.00
2022-12-15T08:53:13.746Z,72.22
2022-12-15T08:54:15.705Z,78.18
2022-12-15T08:55:23.620Z,99.07
2022-12-15T08:56:27.242Z,88.97
2022-12-15T08:57:32.150Z,80.68
2022-12-15T08:58:38.390Z,72.80
2022-12-15T08:59:46.610Z,78.22
2022-12-15T09:00:53.973Z,84.45
2022-12-15T09:01:58.976Z,97.05
2022-12-15T09:03:03.925Z,95.35
2022-12-15T09:04:06.935Z,95.18
2022-12-15T09:05:13.944Z,103.90
2022-12-15T09:06:20.472Z,105.20
2022-12-15T09:07:27.053Z,82.65
2022-12-15T09:08:31.183Z,104.10
2022-12-15T09:09:36.717Z,93.15
2022-12-15T09:10:40.945Z,85.38
2022-12-15T09:11:47.137Z,77.43
2022-12-15T09:12:51.933Z,84.07
2022-12-15T09:13:54.520Z,80.88
2022-12-15T09:15:02.001Z,78.32
2022-12-15T09:16:10.181Z,85.78
2022-12-15T09:17:16.830Z,94.60
2022-12-15T09:18:19.263Z,91.55
2022-12-15T09:19:25.431Z,82.95
2022-12-15T09:20:27.819Z,80.75
2022-12-15T09:21:33.965Z,96.60
2022-12-15T09:22:40.539Z,113.93
2022-12-15T09:23:43.290Z,81.63
2022-12-15T09:24:49.818Z,86.50
2022-12-15T09:25:55.278Z,72.85
2022-12-15T09:27:01.445Z,78.60
2022-12-15T09:28:04.043Z,73.82
2022-12-15T09:29:08.862Z,75.57
2022-12-15T09:30:19.977Z,74.43
2022-12-15T09:31:25.744Z,75.40
2022-12-15T09:32:33.353Z,73.80
2022-12-15T09:33:39.501Z,73.20
2022-12-15T09:34:46.965Z,78.57
2022-12-15T09:35:52.588Z,77.65
2022-12-15T09:36:57.562Z,71.93
2022-12-15T09:38:04.109Z,71.47
2022-12-15T09:39:17.251Z,80.68
2022-12-15T09:40:23.394Z,86.85
2022-12-15T09:41:30.428Z,107.95
2022-12-15T09:42:35.651Z,112.68
2022-12-15T09:43:47.080Z,112.35
2022-12-15T09:44:59.695Z,90.03
2022-12-15T09:46:16.798Z,134.38
2022-12-15T09:47:33.945Z,173.63
2022-12-15T09:48:45.010Z,143.93
2022-12-15T09:49:56.961Z,181.52
2022-12-15T09:51:04.610Z,141.88
2022-12-15T09:52:11.863Z,151.50
2022-12-15T09:53:53.099Z,163.50
2022-12-15T09:54:47.858Z,131.38
2022-12-15T09:56:00.497Z,148.32
2022-12-15T09:57:11.241Z,102.35
2022-12-15T09:58:26.773Z,103.05
2022-12-15T09:59:36.239Z,116.80
2022-12-15T10:00:52.402Z,99.38
2022-12-15T10:02:22.953Z,76.88
2022-12-15T10:03:48.309Z,93.03
2022-12-15T10:05:01.993Z,96.30
2022-12-15T10:06:16.623Z,98.60
2022-12-15T10:07:31.455Z,104.45
2022-12-15T10:08:40.543Z,117.13
2022-12-15T10:09:49.255Z,95.78
2022-12-15T10:10:57.651Z,113.40
2022-12-15T10:12:08.506Z,124.95
2022-12-15T10:13:18.274Z,138.02
2022-12-15T10:14:34.238Z,118.53
2022-12-15T10:15:46.610Z,113.43
2022-12-15T10:17:07.537Z,127.00
2022-12-15T10:18:19.314Z,104.43
2022-12-15T10:19:33.110Z,93.68
2022-12-15T10:20:43.859Z,93.30
2022-12-15T10:21:52.641Z,87.35
2022-12-15T10:23:00.216Z,79.55
2022-12-15T10:24:31.420Z,85.18
2022-12-15T10:25:46.334Z,77.22
2022-12-15T10:27:05.809Z,87.32
2022-12-15T10:28:30.978Z,80.03
2022-12-15T10:29:50.718Z,82.93
2022-12-15T10:31:05.381Z,70.32
2022-12-15T10:32:23.463Z,80.15
2022-12-15T10:33:36.149Z,81.03
2022-12-15T10:34:41.101Z,84.45
2022-12-15T10:35:49.220Z,73.85
2022-12-15T10:36:52.678Z,71.25
2022-12-15T10:38:01.800Z,72.22
2022-12-15T10:39:04.765Z,65.88
2022-12-15T10:40:11.976Z,67.90
2022-12-15T10:41:20.063Z,68.05
2022-12-15T10:42:27.230Z,64.70
2022-12-15T10:43:37.701Z,70.50
2022-12-15T10:44:42.229Z,70.78
2022-12-15T10:45:48.163Z,70.22
2022-12-15T10:46:58.773Z,65.30
2022-12-15T10:48:09.889Z,65.00
2022-12-15T10:49:26.677Z,64.82
2022-12-15T10:50:29.260Z,67.47
2022-12-15T10:51:38.320Z,75.72
2022-12-15T10:52:45.016Z,71.85
2022-12-15T10:53:50.613Z,71.20
2022-12-15T10:54:57.977Z,66.03
2022-12-15T10:56:01.520Z,70.15
2022-12-15T10:57:19.691Z,67.50
2022-12-15T10:58:24.710Z,72.15
2022-12-15T10:59:34.068Z,69.80
2022-12-15T11:00:42.089Z,71.43
2022-12-15T11:01:48.597Z,72.45
2022-12-15T11:02:55.850Z,71.43
2022-12-15T11:04:04.316Z,72.18
2022-12-15T11:05:20.164Z,77.15
2022-12-15T11:06:27.251Z,76.40
2022-12-15T11:07:39.646Z,71.93
2022-12-15T11:08:47.599Z,70.13
2022-12-15T11:09:53.767Z,75.35
2022-12-15T11:11:12.851Z,72.13
2022-12-15T11:12:33.696Z,76.68
2022-12-15T11:13:39.343Z,94.13
2022-12-15T11:14:45.005Z,92.97
2022-12-15T11:15:52.134Z,86.78
2022-12-15T11:16:59.391Z,85.97
2022-12-15T11:18:10.976Z,87.10
2022-12-15T11:20:33.383Z,91.38
2022-12-15T11:21:43.031Z,121.00
2022-12-15T11:22:54.070Z,110.72
2022-12-15T11:24:07.732Z,95.45
2022-12-15T11:25:23.765Z,83.97
2022-12-15T11:26:38.834Z,92.53
2022-12-15T11:27:47.798Z,89.75
2022-12-15T11:28:57.247Z,81.80
2022-12-15T11:30:17.479Z,83.18
2022-12-15T11:31:26.049Z,71.70
2022-12-15T11:32:35.432Z,82.63
2022-12-15T11:33:38.156Z,75.80
2022-12-15T11:34:48.541Z,78.88
2022-12-15T11:36:10.001Z,75.25
2022-12-15T11:37:40.388Z,87.55
2022-12-15T11:38:51.038Z,78.60
2022-12-15T11:40:08.458Z,76.37
2022-12-15T11:41:31.268Z,98.70
2022-12-15T11:42:52.208Z,93.68
2022-12-15T11:44:09.685Z,93.32
2022-12-15T11:45:24.963Z,93.55
2022-12-15T11:46:33.337Z,81.82
2022-12-15T11:47:46.321Z,100.32
2022-12-15T11:49:05.350Z,98.32
2022-12-15T11:50:31.096Z,77.57
2022-12-15T11:51:44.682Z,87.45
2022-12-15T11:53:04.109Z,75.32
2022-12-15T11:54:20.331Z,75.15
2022-12-15T11:55:41.222Z,66.55
2022-12-15T11:56:52.075Z,82.13
2022-12-15T11:58:22.205Z,80.57
2022-12-15T11:59:51.059Z,81.78
2022-12-15T12:01:01.774Z,72.90
2022-12-15T12:02:30.923Z,68.53
2022-12-15T12:03:51.597Z,68.57
2022-12-15T12:05:17.339Z,66.82
2022-12-15T12:06:33.902Z,65.45
2022-12-15T12:07:47.474Z,65.95
2022-12-15T12:09:09.360Z,70.78
2022-12-15T12:10:30.078Z,63.95
2022-12-15T12:11:44.403Z,78.22
2022-12-15T12:12:59.091Z,74.47
2022-12-15T12:14:24.598Z,68.35
2022-12-15T12:15:34.515Z,69.78
2022-12-15T12:26:03.276Z,163.65
2022-12-15T12:27:23.222Z,131.10
2022-12-15T12:28:50.649Z,140.50
2022-12-15T12:30:26.717Z,124.97
2022-12-15T12:33:30.691Z,121.65
2022-12-15T12:35:30.847Z,105.28
2022-12-15T12:36:40.159Z,112.13
2022-12-15T12:40:01.542Z,115.78
2022-12-15T12:41:17.118Z,124.00
2022-12-15T12:42:30.800Z,129.35
2022-12-15T12:43:43.362Z,105.60
2022-12-15T12:44:54.371Z,113.50
2022-12-15T12:46:34.708Z,113.55
2022-12-15T12:47:52.730Z,144.40
2022-12-15T12:49:15.075Z,126.63
2022-12-15T12:50:28.172Z,118.03
2022-12-15T12:51:40.687Z,117.68
2022-12-15T12:52:59.909Z,124.65
2022-12-15T12:54:16.772Z,140.40
2022-12-15T12:55:47.227Z,137.07
2022-12-15T12:57:24.906Z,131.65
2022-12-15T12:58:53.228Z,114.05
2022-12-15T13:00:03.680Z,134.73
2022-12-15T13:02:12.286Z,123.80
2022-12-15T13:03:44.136Z,136.15
2022-12-15T13:04:55.287Z,110.10
2022-12-15T13:06:14.668Z,131.57
2022-12-15T13:07:55.904Z,111.45
2022-12-15T13:09:22.869Z,97.30
2022-12-15T13:10:37.687Z,108.35
2022-12-15T13:12:14.973Z,119.00
2022-12-15T13:14:07.157Z,113.85
2022-12-15T13:18:33.351Z,94.57
2022-12-15T13:20:26.786Z,83.25
2022-12-15T13:22:02.236Z,96.70
2022-12-15T13:23:51.625Z,104.57
2022-12-15T13:24:57.452Z,125.90
2022-12-15T13:26:26.117Z,131.70
2022-12-15T13:27:40.808Z,119.85
2022-12-15T13:28:49.511Z,115.97
2022-12-15T13:30:12.368Z,128.20
2022-12-15T13:33:40.169Z,115.32
2022-12-15T13:34:47.143Z,120.05
2022-12-15T13:36:02.321Z,135.20
2022-12-15T13:37:29.773Z,128.27
2022-12-15T13:39:11.983Z,116.80
2022-12-15T13:40:55.009Z,115.43
2022-12-15T13:42:58.274Z,100.38
2022-12-15T13:44:21.449Z,112.38
2022-12-15T13:45:59.607Z,116.60
2022-12-15T13:47:18.539Z,120.47
2022-12-15T13:48:33.877Z,97.22
2022-12-15T13:50:01.752Z,90.57
2022-12-15T13:51:32.813Z,143.52
2022-12-15T13:53:17.449Z,104.72
2022-12-15T13:55:28.056Z,133.25
2022-12-15T13:57:00.018Z,143.63
2022-12-15T13:58:07.506Z,139.82
2022-12-15T13:59:27.769Z,154.63
2022-12-15T14:00:35.576Z,156.65
2022-12-15T14:01:54.251Z,142.50
2022-12-15T14:03:50.988Z,126.38
2022-12-15T14:05:20.896Z,188.52
2022-12-15T14:08:27.720Z,155.38
2022-12-15T14:11:37.146Z,148.68
2022-12-15T14:12:34.391Z,122.10
2022-12-15T14:15:26.026Z,122.55
2022-12-15T14:18:07.508Z,160.60
2022-12-15T14:19:18.364Z,102.55
2022-12-15T14:20:27.414Z,142.18
2022-12-15T14:21:31.378Z,124.63
2022-12-15T14:22:37.381Z,125.93
2022-12-15T14:26:58.510Z,144.05
2022-12-15T14:28:10.585Z,154.52
2022-12-15T14:29:16.970Z,138.60
2022-12-15T14:30:29.533Z,126.70
2022-12-15T14:31:33.155Z,133.68
2022-12-15T14:32:40.246Z,121.80
2022-12-15T14:33:51.436Z,155.40
2022-12-15T14:34:55.473Z,182.65
2022-12-15T14:36:03.467Z,171.00
2022-12-15T14:40:28.950Z,165.40
2022-12-15T14:42:06.788Z,139.90
2022-12-15T14:43:35.888Z,130.65
2022-12-15T14:44:50.834Z,136.88
2022-12-15T14:46:14.506Z,158.38
2022-12-15T14:50:24.993Z,145.63
2022-12-15T14:51:35.791Z,151.73
2022-12-15T14:52:46.345Z,143.23
2022-12-15T14:53:59.006Z,189.15
2022-12-15T14:55:09.927Z,167.32
2022-12-15T14:56:43.444Z,140.88
2022-12-15T14:57:51.987Z,125.05
2022-12-15T14:59:04.628Z,155.23
2022-12-15T15:00:33.085Z,148.48
2022-12-15T15:01:59.129Z,144.20
2022-12-15T15:03:05.834Z,117.25
2022-12-15T15:03:26.286Z,151.68
2022-12-15T15:04:42.646Z,121.78
2022-12-15T15:05:46.955Z,153.32
2022-12-15T15:06:58.117Z,148.02
2022-12-15T15:09:46.024Z,128.70
2022-12-15T15:10:54.862Z,122.25
2022-12-15T15:12:05.166Z,142.35
2022-12-15T15:13:23.643Z,152.85
2022-12-15T15:14:32.269Z,112.13
2022-12-15T15:15:34.734Z,117.82
2022-12-15T15:16:43.454Z,123.70
2022-12-15T15:21:26.910Z,120.43
2022-12-15T15:22:52.669Z,109.57
2022-12-15T15:24:11.858Z,133.38
2022-12-15T15:25:40.778Z,115.32
2022-12-15T15:26:44.309Z,117.60
2022-12-15T15:27:49.531Z,122.70
2022-12-15T15:28:56.725Z,158.88
2022-12-15T15:30:33.929Z,132.32
2022-12-15T15:31:43.010Z,124.10
2022-12-15T15:33:01.701Z,125.15
2022-12-15T15:34:08.262Z,89.93
2022-12-15T15:35:10.771Z,118.38
2022-12-15T15:36:17.352Z,92.15
2022-12-15T15:37:27.719Z,133.23
2022-12-15T15:38:37.370Z,123.05
2022-12-15T15:39:49.774Z,125.78
2022-12-15T15:41:16.999Z,119.28
2022-12-15T15:42:29.240Z,127.00
2022-12-15T15:43:52.310Z,132.65
2022-12-15T15:44:57.346Z,137.07
2022-12-15T15:46:08.316Z,138.75
2022-12-15T15:47:27.961Z,98.63
2022-12-15T15:48:43.721Z,105.05
2022-12-15T15:49:51.565Z,109.20
2022-12-15T15:51:00.696Z,135.50
2022-12-15T15:52:06.650Z,139.40
2022-12-15T15:53:33.605Z,123.30
2022-12-15T15:54:45.965Z,115.43
2022-12-15T15:56:05.195Z,110.88
2022-12-15T15:57:12.656Z,117.45
2022-12-15T15:58:18.199Z,122.43
2022-12-15T16:00:59.610Z,119.43